SAS927 EKCH-KBOS
Flight info
| Callsign | SAS927 |
|---|---|
| Flight time | N/A |
| Altitude | 38000 |
| Route | ODDON P60 AMRAM L983 PETIL DCT CUTEL DCT GOMOT DCT SAB DCT CLYDE DCT TUXOS DCT MIMKU DCT PIKIL/M080F390 DCT 57N020W 57N030W 57N040W 56N050W DCT JANJO/N0470F400 N712B QUBIS DCT PQI DCT MLT DCT BGR DCT AJJAY OOSHN5 |
| Aircraft | A333/H-SDE3GHIJ2J3J5M1RVWXY/LB2D1 |
Departure
| Time | 2026-05-04 20:00 |
|---|---|
| Airport | Copenhagen Kastrup Airport (EKCH) |
Arrival
| Time | N/A |
|---|---|
| Airport | Boston Logan International Airport (KBOS) |
| Time | Latitude | Longitude | Altitude | Speed | Heading |
|---|---|---|---|---|---|
| 2026-05-04 19:30 | 55.62570 | 12.65062 | 23 ft | 0 kts | 269° |
| 2026-05-04 19:44 | 55.62571 | 12.65089 | 23 ft | 2 kts | 266° |
| 2026-05-04 19:44 | 55.62572 | 12.65117 | 23 ft | 2 kts | 263° |
| 2026-05-04 19:44 | 55.62575 | 12.65146 | 26 ft | 2 kts | 255° |
| 2026-05-04 19:45 | 55.62580 | 12.65173 | 26 ft | 2 kts | 236° |
| 2026-05-04 19:45 | 55.62592 | 12.65193 | 26 ft | 2 kts | 192° |
| 2026-05-04 19:45 | 55.62602 | 12.65195 | 26 ft | 0 kts | 180° |
| 2026-05-04 19:45 | 55.62603 | 12.65195 | 26 ft | 0 kts | 179° |
| 2026-05-04 19:46 | 55.62590 | 12.65195 | 26 ft | 2 kts | 179° |
| 2026-05-04 19:46 | 55.62579 | 12.65196 | 25 ft | 2 kts | 179° |
| 2026-05-04 19:46 | 55.62563 | 12.65197 | 23 ft | 2 kts | 178° |
| 2026-05-04 19:46 | 55.62542 | 12.65197 | 21 ft | 2 kts | 179° |
| 2026-05-04 19:47 | 55.62526 | 12.65198 | 24 ft | 2 kts | 178° |
| 2026-05-04 19:47 | 55.62523 | 12.65198 | 24 ft | 0 kts | 178° |
| 2026-05-04 19:48 | 55.62522 | 12.65198 | 24 ft | 1 kts | 178° |
| 2026-05-04 19:49 | 55.62503 | 12.65199 | 22 ft | 5 kts | 179° |
| 2026-05-04 19:49 | 55.62466 | 12.65200 | 21 ft | 6 kts | 179° |
| 2026-05-04 19:49 | 55.62421 | 12.65202 | 22 ft | 7 kts | 179° |
| 2026-05-04 19:49 | 55.62362 | 12.65204 | 24 ft | 10 kts | 179° |
| 2026-05-04 19:50 | 55.62297 | 12.65181 | 22 ft | 9 kts | 216° |
| 2026-05-04 19:50 | 55.62281 | 12.65079 | 23 ft | 9 kts | 284° |
| 2026-05-04 19:50 | 55.62310 | 12.64981 | 23 ft | 9 kts | 301° |
| 2026-05-04 19:50 | 55.62345 | 12.64881 | 25 ft | 10 kts | 296° |
| 2026-05-04 19:51 | 55.62338 | 12.64770 | 23 ft | 9 kts | 248° |
| 2026-05-04 19:51 | 55.62312 | 12.64661 | 24 ft | 10 kts | 246° |
| 2026-05-04 19:51 | 55.62295 | 12.64595 | 24 ft | 0 kts | 245° |
| 2026-05-04 19:52 | 55.62293 | 12.64584 | 23 ft | 2 kts | 245° |
| 2026-05-04 19:52 | 55.62283 | 12.64546 | 22 ft | 7 kts | 246° |
| 2026-05-04 19:53 | 55.62252 | 12.64430 | 21 ft | 14 kts | 239° |
| 2026-05-04 19:53 | 55.62172 | 12.64325 | 20 ft | 14 kts | 206° |
| 2026-05-04 19:53 | 55.62089 | 12.64253 | 23 ft | 13 kts | 205° |
| 2026-05-04 19:53 | 55.62006 | 12.64183 | 23 ft | 13 kts | 207° |
| 2026-05-04 19:54 | 55.61923 | 12.64114 | 22 ft | 13 kts | 205° |
| 2026-05-04 19:54 | 55.61836 | 12.64073 | 22 ft | 13 kts | 178° |
| 2026-05-04 19:54 | 55.61758 | 12.64079 | 21 ft | 0 kts | 175° |
| 2026-05-04 19:57 | 55.61757 | 12.64079 | 21 ft | 0 kts | 175° |
| 2026-05-04 19:58 | 55.61750 | 12.64080 | 25 ft | 3 kts | 175° |
| 2026-05-04 19:58 | 55.61705 | 12.64085 | 25 ft | 10 kts | 176° |
| 2026-05-04 19:58 | 55.61638 | 12.64074 | 28 ft | 10 kts | 198° |
| 2026-05-04 19:58 | 55.61578 | 12.64001 | 29 ft | 2 kts | 221° |
| 2026-05-04 19:59 | 55.61554 | 12.63964 | 28 ft | 22 kts | 221° |
| 2026-05-04 19:59 | 55.61282 | 12.63543 | 29 ft | 81 kts | 221° |
| 2026-05-04 19:59 | 55.60721 | 12.62673 | 29 ft | 132 kts | 221° |
| 2026-05-04 19:59 | 55.59913 | 12.61426 | 46 ft | 174 kts | 223° |
| 2026-05-04 20:00 | 55.59011 | 12.60081 | 816 ft | 167 kts | 222° |
| 2026-05-04 20:00 | 55.58103 | 12.58692 | 1383 ft | 183 kts | 225° |
| 2026-05-04 20:00 | 55.57084 | 12.57072 | 1700 ft | 209 kts | 227° |
| 2026-05-04 20:00 | 55.56217 | 12.54856 | 1873 ft | 233 kts | 254° |
| 2026-05-04 20:01 | 55.56123 | 12.51950 | 2340 ft | 243 kts | 277° |
| 2026-05-04 20:01 | 55.56363 | 12.48973 | 3052 ft | 246 kts | 279° |
| 2026-05-04 20:01 | 55.56644 | 12.45975 | 3805 ft | 248 kts | 279° |
| 2026-05-04 20:01 | 55.56917 | 12.42994 | 4576 ft | 250 kts | 278° |
| 2026-05-04 20:02 | 55.57188 | 12.39950 | 5364 ft | 251 kts | 278° |
| 2026-05-04 20:02 | 55.57453 | 12.36898 | 6176 ft | 252 kts | 277° |
| 2026-05-04 20:02 | 55.57718 | 12.33808 | 6726 ft | 254 kts | 277° |
| 2026-05-04 20:02 | 55.57944 | 12.30689 | 6927 ft | 256 kts | 274° |
| 2026-05-04 20:03 | 55.58071 | 12.27546 | 6959 ft | 257 kts | 272° |
| 2026-05-04 20:03 | 55.58171 | 12.24430 | 7030 ft | 257 kts | 272° |
| 2026-05-04 20:03 | 55.58269 | 12.21262 | 7463 ft | 259 kts | 272° |
| 2026-05-04 20:03 | 55.58366 | 12.18082 | 8274 ft | 260 kts | 272° |
| 2026-05-04 20:04 | 55.58464 | 12.14896 | 9129 ft | 260 kts | 272° |
| 2026-05-04 20:04 | 55.58563 | 12.11694 | 9927 ft | 262 kts | 272° |
| 2026-05-04 20:04 | 55.58664 | 12.08409 | 10404 ft | 275 kts | 272° |
| 2026-05-04 20:04 | 55.58769 | 12.04916 | 10665 ft | 294 kts | 272° |
| 2026-05-04 20:05 | 55.58881 | 12.01191 | 10945 ft | 312 kts | 272° |
| 2026-05-04 20:05 | 55.58996 | 11.97308 | 11462 ft | 320 kts | 272° |
| 2026-05-04 20:05 | 55.59113 | 11.93359 | 12145 ft | 323 kts | 272° |
| 2026-05-04 20:05 | 55.59231 | 11.89368 | 12850 ft | 326 kts | 272° |
| 2026-05-04 20:06 | 55.59346 | 11.85395 | 13543 ft | 329 kts | 271° |
| 2026-05-04 20:06 | 55.59462 | 11.81341 | 14179 ft | 332 kts | 271° |
| 2026-05-04 20:06 | 55.59578 | 11.77247 | 14748 ft | 336 kts | 272° |
| 2026-05-04 20:06 | 55.59695 | 11.73077 | 15332 ft | 340 kts | 272° |
| 2026-05-04 20:07 | 55.59810 | 11.68883 | 15940 ft | 343 kts | 272° |
| 2026-05-04 20:07 | 55.59926 | 11.64641 | 16542 ft | 346 kts | 272° |
| 2026-05-04 20:07 | 55.60041 | 11.60379 | 17140 ft | 349 kts | 272° |
| 2026-05-04 20:07 | 55.60156 | 11.56066 | 17755 ft | 352 kts | 272° |
| 2026-05-04 20:08 | 55.60270 | 11.51723 | 18312 ft | 355 kts | 272° |
| 2026-05-04 20:08 | 55.60383 | 11.47342 | 18818 ft | 358 kts | 272° |
| 2026-05-04 20:08 | 55.60496 | 11.42924 | 19323 ft | 361 kts | 272° |
| 2026-05-04 20:08 | 55.60547 | 11.38474 | 19833 ft | 363 kts | 268° |
| 2026-05-04 20:09 | 55.60449 | 11.34057 | 20313 ft | 366 kts | 266° |
| 2026-05-04 20:09 | 55.60309 | 11.29550 | 20798 ft | 368 kts | 266° |
| 2026-05-04 20:09 | 55.60160 | 11.24998 | 21285 ft | 371 kts | 266° |
| 2026-05-04 20:09 | 55.60009 | 11.20439 | 21755 ft | 374 kts | 266° |
| 2026-05-04 20:10 | 55.59857 | 11.15835 | 22219 ft | 376 kts | 266° |
| 2026-05-04 20:10 | 55.59702 | 11.11202 | 22694 ft | 379 kts | 266° |
| 2026-05-04 20:10 | 55.59546 | 11.06537 | 23155 ft | 381 kts | 266° |
| 2026-05-04 20:10 | 55.59387 | 11.01844 | 23590 ft | 384 kts | 266° |
| 2026-05-04 20:11 | 55.59225 | 10.97120 | 23958 ft | 386 kts | 266° |
| 2026-05-04 20:11 | 55.59060 | 10.92354 | 24313 ft | 389 kts | 266° |
| 2026-05-04 20:11 | 55.58892 | 10.87566 | 24672 ft | 391 kts | 266° |
| 2026-05-04 20:11 | 55.58723 | 10.82806 | 25020 ft | 393 kts | 266° |
| 2026-05-04 20:12 | 55.58550 | 10.77964 | 25366 ft | 396 kts | 266° |
| 2026-05-04 20:12 | 55.58374 | 10.73095 | 25721 ft | 398 kts | 266° |
| 2026-05-04 20:12 | 55.58222 | 10.68193 | 26067 ft | 400 kts | 268° |
| 2026-05-04 20:12 | 55.58359 | 10.63262 | 26402 ft | 403 kts | 275° |
| 2026-05-04 20:13 | 55.58753 | 10.58336 | 26752 ft | 406 kts | 278° |
| 2026-05-04 20:13 | 55.59247 | 10.53394 | 27081 ft | 409 kts | 279° |
| 2026-05-04 20:13 | 55.59788 | 10.48446 | 27422 ft | 411 kts | 279° |
| 2026-05-04 20:13 | 55.60345 | 10.43474 | 27752 ft | 413 kts | 279° |
| 2026-05-04 20:14 | 55.60903 | 10.38464 | 28088 ft | 415 kts | 279° |
| 2026-05-04 20:14 | 55.61454 | 10.33421 | 28411 ft | 418 kts | 279° |
| 2026-05-04 20:14 | 55.61989 | 10.28423 | 28733 ft | 420 kts | 279° |
| 2026-05-04 20:14 | 55.62525 | 10.23330 | 29052 ft | 422 kts | 279° |
| 2026-05-04 20:15 | 55.63058 | 10.18207 | 29371 ft | 424 kts | 279° |
| 2026-05-04 20:15 | 55.63590 | 10.13056 | 29691 ft | 426 kts | 279° |
| 2026-05-04 20:15 | 55.64122 | 10.07873 | 29972 ft | 430 kts | 279° |
| 2026-05-04 20:15 | 55.64658 | 10.02629 | 30192 ft | 433 kts | 279° |
| 2026-05-04 20:16 | 55.65196 | 9.97354 | 30467 ft | 435 kts | 279° |
| 2026-05-04 20:16 | 55.65728 | 9.92142 | 30741 ft | 437 kts | 279° |
| 2026-05-04 20:16 | 55.66311 | 9.86847 | 31003 ft | 439 kts | 280° |
| 2026-05-04 20:16 | 55.66932 | 9.81533 | 31268 ft | 441 kts | 281° |
| 2026-05-04 20:17 | 55.67572 | 9.76201 | 31532 ft | 442 kts | 281° |
| 2026-05-04 20:17 | 55.68210 | 9.70895 | 31806 ft | 444 kts | 281° |
| 2026-05-04 20:17 | 55.68854 | 9.65522 | 32180 ft | 443 kts | 281° |
| 2026-05-04 20:17 | 55.69486 | 9.60191 | 32561 ft | 441 kts | 281° |
| 2026-05-04 20:18 | 55.70110 | 9.54870 | 32918 ft | 440 kts | 281° |
| 2026-05-04 20:18 | 55.70722 | 9.49614 | 33248 ft | 440 kts | 281° |
| 2026-05-04 20:18 | 55.71344 | 9.44237 | 33593 ft | 439 kts | 281° |
| 2026-05-04 20:18 | 55.71956 | 9.38921 | 33928 ft | 439 kts | 281° |
| 2026-05-04 20:19 | 55.72555 | 9.33695 | 34216 ft | 438 kts | 280° |
| 2026-05-04 20:19 | 55.73158 | 9.28404 | 34490 ft | 437 kts | 280° |
| 2026-05-04 20:19 | 55.73759 | 9.23123 | 34763 ft | 436 kts | 280° |
| 2026-05-04 20:19 | 55.74357 | 9.17836 | 35041 ft | 436 kts | 279° |
| 2026-05-04 20:20 | 55.74950 | 9.12553 | 35266 ft | 435 kts | 280° |
| 2026-05-04 20:20 | 55.75541 | 9.07283 | 35519 ft | 435 kts | 280° |
| 2026-05-04 20:20 | 55.76131 | 9.02019 | 35772 ft | 434 kts | 280° |
| 2026-05-04 20:20 | 55.76718 | 8.96762 | 36042 ft | 433 kts | 280° |
| 2026-05-04 20:21 | 55.77302 | 8.91513 | 36295 ft | 433 kts | 280° |
| 2026-05-04 20:21 | 55.77883 | 8.86264 | 36512 ft | 433 kts | 279° |
| 2026-05-04 20:21 | 55.79035 | 8.75772 | 36942 ft | 432 kts | 279° |
| 2026-05-04 20:22 | 55.79607 | 8.70527 | 37149 ft | 432 kts | 279° |
| 2026-05-04 20:22 | 55.80176 | 8.65291 | 37362 ft | 432 kts | 279° |
| 2026-05-04 20:22 | 55.80736 | 8.60115 | 37566 ft | 432 kts | 279° |
| 2026-05-04 20:22 | 55.81303 | 8.54865 | 37782 ft | 431 kts | 279° |
| 2026-05-04 20:23 | 55.81865 | 8.49627 | 37965 ft | 431 kts | 279° |
| 2026-05-04 20:23 | 55.82427 | 8.44374 | 38013 ft | 432 kts | 279° |
| 2026-05-04 20:23 | 55.83541 | 8.33861 | 38003 ft | 431 kts | 279° |
| 2026-05-04 20:24 | 55.84567 | 8.23343 | 38008 ft | 431 kts | 277° |
| 2026-05-04 20:24 | 55.85298 | 8.12847 | 38003 ft | 431 kts | 275° |
| 2026-05-04 20:25 | 55.85963 | 8.02249 | 38005 ft | 431 kts | 275° |
| 2026-05-04 20:25 | 55.86640 | 7.91657 | 38000 ft | 431 kts | 275° |
| 2026-05-04 20:26 | 55.87321 | 7.81036 | 38007 ft | 432 kts | 275° |
| 2026-05-04 20:26 | 55.88002 | 7.70394 | 38003 ft | 432 kts | 275° |
| 2026-05-04 20:27 | 55.88673 | 7.59820 | 38007 ft | 432 kts | 275° |
| 2026-05-04 20:27 | 55.89337 | 7.49182 | 38005 ft | 432 kts | 275° |
| 2026-05-04 20:28 | 55.89993 | 7.38529 | 38013 ft | 432 kts | 275° |
| 2026-05-04 20:28 | 55.90637 | 7.27886 | 38010 ft | 432 kts | 275° |
| 2026-05-04 20:29 | 55.91275 | 7.17214 | 38015 ft | 432 kts | 275° |
| 2026-05-04 20:29 | 55.91902 | 7.06554 | 38015 ft | 433 kts | 275° |
| 2026-05-04 20:30 | 55.92517 | 6.95944 | 38015 ft | 432 kts | 275° |
| 2026-05-04 20:30 | 55.93126 | 6.85275 | 38015 ft | 432 kts | 274° |
| 2026-05-04 20:31 | 55.93728 | 6.74572 | 38013 ft | 433 kts | 274° |
| 2026-05-04 20:31 | 55.94266 | 6.63870 | 38013 ft | 433 kts | 271° |
| 2026-05-04 20:32 | 55.94390 | 6.53200 | 38015 ft | 433 kts | 270° |
| 2026-05-04 20:32 | 55.94421 | 6.42452 | 38015 ft | 433 kts | 269° |
| 2026-05-04 20:33 | 55.94427 | 6.31709 | 38018 ft | 433 kts | 269° |
| 2026-05-04 20:33 | 55.94427 | 6.20966 | 38023 ft | 433 kts | 269° |
| 2026-05-04 20:34 | 55.94425 | 6.12031 | 38017 ft | 433 kts | 269° |
| 2026-05-04 20:34 | 55.94415 | 6.01292 | 38018 ft | 433 kts | 269° |
| 2026-05-04 20:35 | 55.94396 | 5.90529 | 38018 ft | 433 kts | 269° |
| 2026-05-04 20:35 | 55.94367 | 5.79777 | 38020 ft | 433 kts | 269° |
| 2026-05-04 20:36 | 55.94329 | 5.69013 | 38020 ft | 433 kts | 269° |
| 2026-05-04 20:36 | 55.94282 | 5.58272 | 38023 ft | 433 kts | 269° |
| 2026-05-04 20:37 | 55.94225 | 5.47521 | 38023 ft | 433 kts | 269° |
| 2026-05-04 20:37 | 55.94160 | 5.36838 | 38023 ft | 433 kts | 269° |
| 2026-05-04 20:38 | 55.94086 | 5.26082 | 38024 ft | 433 kts | 269° |
| 2026-05-04 20:38 | 55.94004 | 5.15340 | 38023 ft | 433 kts | 269° |
| 2026-05-04 20:39 | 55.93911 | 5.04586 | 38023 ft | 433 kts | 268° |
| 2026-05-04 20:39 | 55.93809 | 4.93831 | 38023 ft | 433 kts | 268° |
| 2026-05-04 20:40 | 55.93696 | 4.83085 | 38026 ft | 433 kts | 268° |
| 2026-05-04 20:40 | 55.93574 | 4.72344 | 38026 ft | 433 kts | 268° |
| 2026-05-04 20:41 | 55.93443 | 4.61672 | 38026 ft | 433 kts | 268° |
| 2026-05-04 20:41 | 55.93302 | 4.50897 | 38026 ft | 433 kts | 268° |
| 2026-05-04 20:42 | 55.93153 | 4.40216 | 38026 ft | 432 kts | 268° |
| 2026-05-04 20:42 | 55.92993 | 4.29484 | 38026 ft | 432 kts | 268° |
| 2026-05-04 20:43 | 55.92825 | 4.18754 | 38026 ft | 432 kts | 268° |
| 2026-05-04 20:43 | 55.92647 | 4.08040 | 38026 ft | 432 kts | 268° |
| 2026-05-04 20:44 | 55.92461 | 3.97387 | 38029 ft | 432 kts | 268° |
| 2026-05-04 20:44 | 55.92265 | 3.86678 | 38028 ft | 432 kts | 268° |
| 2026-05-04 20:45 | 55.92060 | 3.75974 | 38026 ft | 432 kts | 268° |
| 2026-05-04 20:45 | 55.91845 | 3.65271 | 38026 ft | 432 kts | 268° |
| 2026-05-04 20:46 | 55.91621 | 3.54558 | 38018 ft | 432 kts | 267° |
| 2026-05-04 20:46 | 55.91388 | 3.43859 | 38018 ft | 432 kts | 267° |
| 2026-05-04 20:47 | 55.91145 | 3.33162 | 38023 ft | 431 kts | 267° |
| 2026-05-04 20:47 | 55.90896 | 3.22550 | 38024 ft | 430 kts | 267° |
| 2026-05-04 20:48 | 55.90635 | 3.11879 | 38031 ft | 430 kts | 267° |
| 2026-05-04 20:48 | 55.90366 | 3.01208 | 38031 ft | 430 kts | 267° |
| 2026-05-04 20:49 | 55.90087 | 2.90539 | 38031 ft | 430 kts | 267° |
| 2026-05-04 20:49 | 55.89799 | 2.79871 | 38033 ft | 430 kts | 267° |
| 2026-05-04 20:50 | 55.89504 | 2.69302 | 38034 ft | 430 kts | 267° |
| 2026-05-04 20:50 | 55.89199 | 2.58663 | 38034 ft | 429 kts | 267° |
| 2026-05-04 20:51 | 55.88885 | 2.48037 | 38034 ft | 430 kts | 267° |
| 2026-05-04 20:51 | 55.88635 | 2.37393 | 38034 ft | 430 kts | 270° |
| 2026-05-04 20:52 | 55.88792 | 2.26767 | 38034 ft | 430 kts | 271° |
| 2026-05-04 20:52 | 55.89022 | 2.16129 | 38032 ft | 429 kts | 272° |
| 2026-05-04 20:53 | 55.89258 | 2.05577 | 38031 ft | 428 kts | 272° |
| 2026-05-04 20:53 | 55.89480 | 1.94970 | 38031 ft | 428 kts | 272° |
| 2026-05-04 20:54 | 55.89688 | 1.84362 | 38031 ft | 428 kts | 271° |
| 2026-05-04 20:54 | 55.89885 | 1.73726 | 38029 ft | 428 kts | 271° |
| 2026-05-04 20:55 | 55.90073 | 1.63112 | 38029 ft | 428 kts | 271° |
| 2026-05-04 20:55 | 55.90251 | 1.52548 | 38029 ft | 428 kts | 271° |
| 2026-05-04 20:56 | 55.90421 | 1.41938 | 38029 ft | 428 kts | 271° |
| 2026-05-04 20:56 | 55.90582 | 1.31315 | 38026 ft | 428 kts | 271° |
| 2026-05-04 20:57 | 55.90733 | 1.20702 | 38026 ft | 428 kts | 271° |
| 2026-05-04 20:57 | 55.90875 | 1.10146 | 38023 ft | 428 kts | 271° |
| 2026-05-04 20:58 | 55.91008 | 0.99545 | 38023 ft | 427 kts | 271° |
| 2026-05-04 20:58 | 55.91132 | 0.88961 | 38018 ft | 427 kts | 271° |
| 2026-05-04 20:59 | 55.91247 | 0.78376 | 38017 ft | 427 kts | 271° |
| 2026-05-04 20:59 | 55.91352 | 0.67790 | 38018 ft | 427 kts | 271° |
| 2026-05-04 21:00 | 55.91448 | 0.57181 | 38023 ft | 427 kts | 271° |
| 2026-05-04 21:00 | 55.91535 | 0.46667 | 38023 ft | 426 kts | 271° |
| 2026-05-04 21:01 | 55.91614 | 0.36108 | 38021 ft | 425 kts | 271° |
| 2026-05-04 21:01 | 55.91684 | 0.25562 | 38020 ft | 425 kts | 270° |
| 2026-05-04 21:02 | 55.91744 | 0.15013 | 38018 ft | 425 kts | 270° |
| 2026-05-04 21:02 | 55.91795 | 0.04452 | 38018 ft | 425 kts | 270° |
| 2026-05-04 21:03 | 55.91837 | -0.06098 | 38014 ft | 425 kts | 270° |
| 2026-05-04 21:03 | 55.91870 | -0.16574 | 38015 ft | 425 kts | 270° |
| 2026-05-04 21:04 | 55.91895 | -0.27142 | 38015 ft | 425 kts | 270° |
| 2026-05-04 21:04 | 55.91910 | -0.37686 | 38015 ft | 425 kts | 270° |
| 2026-05-04 21:05 | 55.91916 | -0.48232 | 38012 ft | 425 kts | 270° |
| 2026-05-04 21:05 | 55.91914 | -0.58792 | 38012 ft | 425 kts | 270° |
| 2026-05-04 21:06 | 55.91901 | -0.69341 | 38012 ft | 425 kts | 270° |
| 2026-05-04 21:06 | 55.91880 | -0.79890 | 38012 ft | 425 kts | 270° |
| 2026-05-04 21:07 | 55.91850 | -0.90393 | 38007 ft | 425 kts | 270° |
| 2026-05-04 21:07 | 55.91810 | -1.00942 | 38007 ft | 425 kts | 270° |
| 2026-05-04 21:08 | 55.91762 | -1.11492 | 38007 ft | 425 kts | 270° |
| 2026-05-04 21:08 | 55.91705 | -1.22047 | 38007 ft | 425 kts | 269° |
| 2026-05-04 21:09 | 55.91638 | -1.32574 | 38007 ft | 425 kts | 269° |
| 2026-05-04 21:09 | 55.91563 | -1.43113 | 38007 ft | 425 kts | 269° |
| 2026-05-04 21:10 | 55.91480 | -1.53582 | 38007 ft | 425 kts | 269° |
| 2026-05-04 21:10 | 55.91387 | -1.64121 | 38007 ft | 425 kts | 269° |
| 2026-05-04 21:11 | 55.91284 | -1.74649 | 38007 ft | 424 kts | 269° |
| 2026-05-04 21:11 | 55.91173 | -1.85165 | 38007 ft | 423 kts | 269° |
| 2026-05-04 21:12 | 55.91054 | -1.95607 | 38007 ft | 423 kts | 269° |
| 2026-05-04 21:12 | 55.90926 | -2.06114 | 38012 ft | 423 kts | 269° |
| 2026-05-04 21:13 | 55.90788 | -2.16617 | 38012 ft | 423 kts | 269° |
| 2026-05-04 21:13 | 55.90838 | -2.27103 | 38005 ft | 423 kts | 273° |
| 2026-05-04 21:14 | 55.91186 | -2.37593 | 38014 ft | 423 kts | 274° |
| 2026-05-04 21:14 | 55.91561 | -2.48069 | 38013 ft | 423 kts | 274° |
| 2026-05-04 21:15 | 55.91893 | -2.58481 | 38017 ft | 423 kts | 273° |
| 2026-05-04 21:15 | 55.92197 | -2.68963 | 38017 ft | 423 kts | 273° |
| 2026-05-04 21:16 | 55.92486 | -2.79453 | 38017 ft | 424 kts | 273° |
| 2026-05-04 21:16 | 55.92768 | -2.89960 | 38029 ft | 424 kts | 273° |
| 2026-05-04 21:17 | 55.93042 | -3.00498 | 38036 ft | 425 kts | 273° |
| 2026-05-04 21:17 | 55.93307 | -3.11025 | 38041 ft | 425 kts | 273° |
| 2026-05-04 21:18 | 55.93562 | -3.21475 | 38048 ft | 425 kts | 272° |
| 2026-05-04 21:18 | 55.93810 | -3.32013 | 38048 ft | 425 kts | 272° |
| 2026-05-04 21:19 | 55.94048 | -3.42545 | 38046 ft | 425 kts | 272° |
| 2026-05-04 21:19 | 55.94278 | -3.53088 | 38048 ft | 426 kts | 272° |
| 2026-05-04 21:20 | 55.94498 | -3.63581 | 38045 ft | 426 kts | 272° |
| 2026-05-04 21:20 | 55.94710 | -3.74148 | 38041 ft | 426 kts | 272° |
| 2026-05-04 21:21 | 55.94913 | -3.84706 | 38037 ft | 426 kts | 272° |
| 2026-05-04 21:21 | 55.95107 | -3.95277 | 38047 ft | 426 kts | 272° |
| 2026-05-04 21:22 | 55.95292 | -4.05840 | 38055 ft | 427 kts | 272° |
| 2026-05-04 21:22 | 55.95468 | -4.16368 | 38064 ft | 427 kts | 272° |
| 2026-05-04 21:23 | 55.95635 | -4.26960 | 38070 ft | 427 kts | 272° |
| 2026-05-04 21:23 | 55.95768 | -4.35779 | 38074 ft | 427 kts | 272° |
| 2026-05-04 21:24 | 55.95918 | -4.46365 | 38075 ft | 427 kts | 272° |
| 2026-05-04 21:24 | 55.96060 | -4.56965 | 38072 ft | 427 kts | 271° |
| 2026-05-04 21:25 | 55.96193 | -4.67591 | 38068 ft | 428 kts | 271° |
| 2026-05-04 21:25 | 55.96317 | -4.78206 | 38056 ft | 428 kts | 271° |
| 2026-05-04 21:26 | 55.96457 | -4.88825 | 38056 ft | 428 kts | 271° |
| 2026-05-04 21:26 | 55.96604 | -4.99461 | 38065 ft | 428 kts | 271° |
| 2026-05-04 21:27 | 55.96742 | -5.10086 | 38055 ft | 428 kts | 271° |
| 2026-05-04 21:27 | 55.96868 | -5.20728 | 38162 ft | 429 kts | 271° |
| 2026-05-04 21:28 | 55.96927 | -5.26066 | 38382 ft | 429 kts | 271° |
| 2026-05-04 21:28 | 55.96984 | -5.31396 | 38613 ft | 428 kts | 271° |
| 2026-05-04 21:28 | 55.97038 | -5.36628 | 38788 ft | 428 kts | 271° |
| 2026-05-04 21:28 | 55.97091 | -5.41954 | 38923 ft | 428 kts | 271° |
| 2026-05-04 21:29 | 55.97189 | -5.52603 | 39067 ft | 432 kts | 271° |
| 2026-05-04 21:29 | 55.97279 | -5.63357 | 39068 ft | 433 kts | 271° |
| 2026-05-04 21:30 | 55.97358 | -5.74098 | 39071 ft | 433 kts | 271° |
| 2026-05-04 21:30 | 55.97429 | -5.84880 | 39073 ft | 434 kts | 271° |
| 2026-05-04 21:31 | 55.97518 | -6.01050 | 39070 ft | 434 kts | 271° |
| 2026-05-04 21:32 | 55.97565 | -6.11768 | 39073 ft | 434 kts | 271° |
| 2026-05-04 21:32 | 55.97602 | -6.22550 | 39073 ft | 434 kts | 271° |
| 2026-05-04 21:33 | 55.97631 | -6.33334 | 39077 ft | 434 kts | 271° |
| 2026-05-04 21:33 | 55.97650 | -6.44119 | 39075 ft | 434 kts | 271° |
| 2026-05-04 21:34 | 55.97659 | -6.54927 | 39075 ft | 434 kts | 270° |
| 2026-05-04 21:34 | 55.97660 | -6.65712 | 39075 ft | 434 kts | 270° |
| 2026-05-04 21:35 | 55.97651 | -6.76498 | 39075 ft | 434 kts | 270° |
| 2026-05-04 21:35 | 55.97632 | -6.87298 | 39078 ft | 435 kts | 270° |
| 2026-05-04 21:36 | 55.97604 | -6.98041 | 39081 ft | 435 kts | 270° |
| 2026-05-04 21:36 | 55.97567 | -7.08848 | 39083 ft | 435 kts | 270° |
| 2026-05-04 21:37 | 55.97520 | -7.19664 | 39083 ft | 435 kts | 270° |
| 2026-05-04 21:37 | 55.97464 | -7.30480 | 39086 ft | 435 kts | 270° |
| 2026-05-04 21:38 | 55.97398 | -7.41297 | 39085 ft | 435 kts | 270° |
| 2026-05-04 21:38 | 55.97328 | -7.52135 | 39088 ft | 436 kts | 271° |
| 2026-05-04 21:39 | 55.97458 | -7.62968 | 39089 ft | 436 kts | 272° |
| 2026-05-04 21:39 | 55.97701 | -7.73746 | 39091 ft | 436 kts | 273° |
| 2026-05-04 21:40 | 55.97934 | -7.84584 | 39092 ft | 436 kts | 272° |
| 2026-05-04 21:40 | 55.98136 | -7.95414 | 39094 ft | 436 kts | 272° |
| 2026-05-04 21:41 | 55.98319 | -8.06251 | 39097 ft | 437 kts | 272° |
| 2026-05-04 21:41 | 55.98491 | -8.17099 | 39097 ft | 437 kts | 272° |
| 2026-05-04 21:42 | 55.98655 | -8.27949 | 39099 ft | 437 kts | 272° |
| 2026-05-04 21:42 | 55.98809 | -8.38799 | 39099 ft | 437 kts | 272° |
| 2026-05-04 21:43 | 55.98954 | -8.49663 | 39102 ft | 437 kts | 272° |
| 2026-05-04 21:43 | 55.99089 | -8.60460 | 39105 ft | 437 kts | 272° |
| 2026-05-04 21:44 | 55.99216 | -8.71331 | 39108 ft | 438 kts | 272° |
| 2026-05-04 21:44 | 55.99333 | -8.82230 | 39108 ft | 438 kts | 271° |
| 2026-05-04 21:45 | 55.99439 | -8.93091 | 39108 ft | 437 kts | 271° |
| 2026-05-04 21:45 | 55.99537 | -9.03952 | 39108 ft | 437 kts | 271° |
| 2026-05-04 21:46 | 55.99624 | -9.14728 | 39114 ft | 437 kts | 271° |
| 2026-05-04 21:46 | 55.99703 | -9.25618 | 39113 ft | 438 kts | 271° |
| 2026-05-04 21:47 | 55.99772 | -9.36504 | 39114 ft | 438 kts | 271° |
| 2026-05-04 21:47 | 55.99831 | -9.47380 | 39116 ft | 438 kts | 271° |
| 2026-05-04 21:48 | 55.99881 | -9.58255 | 39121 ft | 438 kts | 271° |
| 2026-05-04 21:48 | 55.99921 | -9.69061 | 39114 ft | 438 kts | 271° |
| 2026-05-04 21:49 | 55.99952 | -9.79947 | 39129 ft | 438 kts | 271° |
| 2026-05-04 21:49 | 55.99973 | -9.90839 | 39126 ft | 438 kts | 271° |
| 2026-05-04 21:50 | 56.00004 | -10.01744 | 39122 ft | 438 kts | 272° |
| 2026-05-04 21:50 | 56.00185 | -10.12627 | 39126 ft | 438 kts | 273° |
| 2026-05-04 21:51 | 56.00416 | -10.23506 | 39133 ft | 438 kts | 273° |
| 2026-05-04 21:51 | 56.00629 | -10.34388 | 39134 ft | 438 kts | 272° |
| 2026-05-04 21:52 | 56.00819 | -10.45288 | 39137 ft | 438 kts | 272° |
| 2026-05-04 21:52 | 56.00993 | -10.56119 | 39137 ft | 438 kts | 272° |
| 2026-05-04 21:53 | 56.01158 | -10.67011 | 39137 ft | 438 kts | 272° |
| 2026-05-04 21:53 | 56.01315 | -10.77928 | 39143 ft | 438 kts | 272° |
| 2026-05-04 21:54 | 56.01462 | -10.88823 | 39142 ft | 439 kts | 272° |
| 2026-05-04 21:54 | 56.01599 | -10.99726 | 39143 ft | 439 kts | 272° |
| 2026-05-04 21:55 | 56.01726 | -11.10572 | 39141 ft | 439 kts | 272° |
| 2026-05-04 21:55 | 56.01844 | -11.21480 | 39149 ft | 439 kts | 272° |
| 2026-05-04 21:56 | 56.01953 | -11.32389 | 39150 ft | 439 kts | 272° |
| 2026-05-04 21:56 | 56.02052 | -11.43311 | 39145 ft | 439 kts | 272° |
| 2026-05-04 21:57 | 56.02142 | -11.54244 | 39154 ft | 440 kts | 271° |
| 2026-05-04 21:57 | 56.02221 | -11.65118 | 39154 ft | 440 kts | 271° |
| 2026-05-04 21:58 | 56.02291 | -11.76053 | 39155 ft | 440 kts | 271° |
| 2026-05-04 21:58 | 56.02352 | -11.86995 | 39154 ft | 440 kts | 271° |
| 2026-05-04 21:59 | 56.02403 | -11.97924 | 39156 ft | 440 kts | 271° |
| 2026-05-04 21:59 | 56.02444 | -12.08805 | 39156 ft | 440 kts | 271° |
| 2026-05-04 22:00 | 56.02475 | -12.19736 | 39163 ft | 440 kts | 271° |
| 2026-05-04 22:00 | 56.02497 | -12.30667 | 39168 ft | 440 kts | 271° |
| 2026-05-04 22:01 | 56.02509 | -12.41599 | 39169 ft | 440 kts | 271° |
| 2026-05-04 22:01 | 56.02512 | -12.52558 | 39167 ft | 440 kts | 271° |
| 2026-05-04 22:02 | 56.02505 | -12.63496 | 39167 ft | 440 kts | 271° |
| 2026-05-04 22:02 | 56.02488 | -12.74444 | 39168 ft | 440 kts | 271° |
| 2026-05-04 22:03 | 56.02461 | -12.85408 | 39176 ft | 440 kts | 271° |
| 2026-05-04 22:03 | 56.02425 | -12.96286 | 39176 ft | 440 kts | 271° |
| 2026-05-04 22:04 | 56.02379 | -13.07250 | 39178 ft | 440 kts | 270° |
| 2026-05-04 22:04 | 56.02324 | -13.18201 | 39174 ft | 441 kts | 270° |
| 2026-05-04 22:05 | 56.02258 | -13.29173 | 39181 ft | 441 kts | 270° |
| 2026-05-04 22:05 | 56.02183 | -13.40138 | 39181 ft | 441 kts | 270° |
| 2026-05-04 22:06 | 56.02099 | -13.51105 | 39189 ft | 441 kts | 270° |
| 2026-05-04 22:06 | 56.02004 | -13.62071 | 39189 ft | 441 kts | 270° |
| 2026-05-04 22:07 | 56.01900 | -13.73037 | 39189 ft | 441 kts | 270° |
| 2026-05-04 22:07 | 56.01785 | -13.84019 | 39192 ft | 442 kts | 270° |
| 2026-05-04 22:08 | 56.01683 | -13.93135 | 39192 ft | 442 kts | 270° |
| 2026-05-04 22:08 | 56.01596 | -14.00401 | 39198 ft | 442 kts | 270° |